createdAt,value
2022-11-30T00:01:42.787Z,10.15
2022-11-30T00:04:11.356Z,10.35
2022-11-30T00:06:43.438Z,10.43
2022-11-30T00:09:12.015Z,10.24
2022-11-30T00:11:40.362Z,10.56
2022-11-30T00:14:08.977Z,10.57
2022-11-30T00:16:37.463Z,10.38
2022-11-30T00:19:07.264Z,10.56
2022-11-30T00:21:35.591Z,10.54
2022-11-30T00:24:04.026Z,10.46
2022-11-30T00:26:32.732Z,10.50
2022-11-30T00:29:01.231Z,10.47
2022-11-30T00:31:29.573Z,10.60
2022-11-30T00:33:58.213Z,10.49
2022-11-30T00:36:28.175Z,10.79
2022-11-30T00:38:57.378Z,10.74
2022-11-30T00:41:25.835Z,10.74
2022-11-30T00:43:54.188Z,10.58
2022-11-30T00:46:22.640Z,10.81
2022-11-30T00:48:51.124Z,10.88
2022-11-30T00:51:21.630Z,10.54
2022-11-30T00:53:51.416Z,10.68
2022-11-30T00:56:20.001Z,10.51
2022-11-30T00:58:48.568Z,10.58
2022-11-30T01:01:17.003Z,10.58
2022-11-30T01:03:45.795Z,10.45
2022-11-30T01:06:14.234Z,10.29
2022-11-30T01:08:42.703Z,9.84
2022-11-30T01:11:16.831Z,10.03
2022-11-30T01:13:45.293Z,10.11
2022-11-30T01:16:18.630Z,10.11
2022-11-30T01:18:48.453Z,9.87
2022-11-30T01:21:19.537Z,10.38
2022-11-30T01:23:48.772Z,10.47
2022-11-30T01:26:20.609Z,7.77
2022-11-30T01:28:52.904Z,10.39
2022-11-30T01:31:24.691Z,10.13
2022-11-30T01:33:55.537Z,10.44
2022-11-30T01:36:25.552Z,9.69
2022-11-30T01:38:56.395Z,10.49
2022-11-30T01:41:29.174Z,9.59
2022-11-30T01:43:59.714Z,10.48
2022-11-30T01:46:36.210Z,10.57
2022-11-30T01:49:19.330Z,10.57
2022-11-30T01:51:58.151Z,10.65
2022-11-30T01:54:31.221Z,10.63
2022-11-30T01:57:06.401Z,10.70
2022-11-30T01:59:34.784Z,10.68
2022-11-30T02:02:02.977Z,10.56
2022-11-30T02:04:34.244Z,10.56
2022-11-30T02:07:04.824Z,10.52
2022-11-30T02:09:37.233Z,10.53
2022-11-30T02:12:09.323Z,10.44
2022-11-30T02:14:43.683Z,10.52
2022-11-30T02:17:22.176Z,10.54
2022-11-30T02:20:36.832Z,10.48
2022-11-30T02:23:44.090Z,10.43
2022-11-30T02:26:35.482Z,10.45
2022-11-30T02:29:15.303Z,10.48
2022-11-30T02:31:56.390Z,10.43
2022-11-30T02:34:28.617Z,10.43
2022-11-30T02:36:58.803Z,10.39
2022-11-30T02:39:27.135Z,10.33
2022-11-30T02:41:55.364Z,10.47
2022-11-30T02:44:26.365Z,10.44
2022-11-30T02:47:13.470Z,10.53
2022-11-30T02:49:50.591Z,10.66
2022-11-30T02:52:20.925Z,10.74
2022-11-30T02:54:49.637Z,10.75
2022-11-30T02:57:18.008Z,10.47
2022-11-30T02:59:47.653Z,10.40
2022-11-30T03:02:15.921Z,10.27
2022-11-30T03:04:44.324Z,10.28
2022-11-30T03:07:12.722Z,10.19
2022-11-30T03:09:40.993Z,9.99
2022-11-30T03:12:09.334Z,9.77
2022-11-30T03:14:37.695Z,9.79
2022-11-30T03:17:07.540Z,9.86
2022-11-30T03:19:36.113Z,9.92
2022-11-30T03:22:04.381Z,10.03
2022-11-30T03:24:32.645Z,9.91
2022-11-30T03:27:00.879Z,9.14
2022-11-30T03:29:29.069Z,9.45
2022-11-30T03:31:57.304Z,9.45
2022-11-30T03:34:27.695Z,9.59
2022-11-30T03:36:56.365Z,9.68
2022-11-30T03:39:25.223Z,9.84
2022-11-30T03:41:53.742Z,9.90
2022-11-30T03:44:22.013Z,9.99
2022-11-30T03:46:50.452Z,10.01
2022-11-30T03:49:18.738Z,10.02
2022-11-30T03:51:48.318Z,9.93
2022-11-30T03:54:16.586Z,9.91
2022-11-30T03:56:44.804Z,9.99
2022-11-30T03:59:13.029Z,10.08
2022-11-30T04:01:41.965Z,10.05
2022-11-30T04:04:10.361Z,10.03
2022-11-30T04:06:38.578Z,10.04
2022-11-30T04:09:08.310Z,10.04
2022-11-30T04:11:36.930Z,10.05
2022-11-30T04:14:05.177Z,10.08
2022-11-30T04:16:33.741Z,10.25
2022-11-30T04:19:02.405Z,10.29
2022-11-30T04:21:30.823Z,10.40
2022-11-30T04:23:59.038Z,10.43
2022-11-30T04:26:28.724Z,10.44
2022-11-30T04:28:56.987Z,10.30
2022-11-30T04:31:25.338Z,9.98
2022-11-30T04:33:55.034Z,9.80
2022-11-30T04:36:23.449Z,9.75
2022-11-30T04:38:51.666Z,9.65
2022-11-30T04:41:19.910Z,9.87
2022-11-30T04:43:49.495Z,9.98
2022-11-30T04:46:17.786Z,9.98
2022-11-30T04:48:45.999Z,10.11
2022-11-30T04:51:14.263Z,10.12
2022-11-30T04:53:42.537Z,10.06
2022-11-30T04:56:12.962Z,10.03
2022-11-30T04:58:41.226Z,10.08
2022-11-30T05:01:10.894Z,10.19
2022-11-30T05:03:39.133Z,10.22
2022-11-30T05:06:07.853Z,9.99
2022-11-30T05:08:36.101Z,9.83
2022-11-30T05:11:04.390Z,9.75
2022-11-30T05:13:32.889Z,9.68
2022-11-30T05:16:01.168Z,9.52
2022-11-30T05:18:31.736Z,9.32
2022-11-30T05:21:00.130Z,9.36
2022-11-30T05:23:28.406Z,9.57
2022-11-30T05:25:56.800Z,9.64
2022-11-30T05:28:24.973Z,9.73
2022-11-30T05:30:53.148Z,8.79
2022-11-30T05:33:21.411Z,9.19
2022-11-30T05:35:51.000Z,8.93
2022-11-30T05:38:19.389Z,9.00
2022-11-30T05:40:47.791Z,8.54
2022-11-30T05:43:16.124Z,9.20
2022-11-30T05:45:44.330Z,9.32
2022-11-30T05:48:12.734Z,9.31
2022-11-30T05:50:40.933Z,9.13
2022-11-30T05:53:10.542Z,8.97
2022-11-30T05:55:39.243Z,9.00
2022-11-30T05:58:07.450Z,9.20
2022-11-30T06:00:35.639Z,9.29
2022-11-30T06:03:04.142Z,9.39
2022-11-30T06:05:35.576Z,9.42
2022-11-30T06:08:03.978Z,9.44
2022-11-30T06:10:33.518Z,9.42
2022-11-30T06:13:08.384Z,9.43
2022-11-30T06:15:37.902Z,9.40
2022-11-30T06:18:07.898Z,9.39
2022-11-30T06:20:36.516Z,9.47
2022-11-30T06:23:04.858Z,9.49
2022-11-30T06:25:34.685Z,9.36
2022-11-30T06:28:02.987Z,9.33
2022-11-30T06:30:31.301Z,9.34
2022-11-30T06:32:59.538Z,9.35
2022-11-30T06:35:27.866Z,9.34
2022-11-30T06:37:56.174Z,9.16
2022-11-30T06:40:24.552Z,9.31
2022-11-30T06:42:54.710Z,9.41
2022-11-30T06:45:22.915Z,9.52
2022-11-30T06:47:51.111Z,9.53
2022-11-30T06:50:19.638Z,9.55
2022-11-30T06:52:47.867Z,9.57
2022-11-30T06:55:16.285Z,9.64
2022-11-30T06:57:44.698Z,9.70
2022-11-30T07:00:16.380Z,9.80
2022-11-30T07:02:44.859Z,9.70
2022-11-30T07:05:13.050Z,9.70
2022-11-30T07:07:41.416Z,9.69
2022-11-30T07:10:13.760Z,9.70
2022-11-30T07:12:45.245Z,9.76
2022-11-30T07:15:14.880Z,9.83
2022-11-30T07:17:43.128Z,9.89
2022-11-30T07:20:11.812Z,9.82
2022-11-30T07:22:40.085Z,9.80
2022-11-30T07:25:27.651Z,9.83
2022-11-30T07:27:56.413Z,9.73
2022-11-30T07:30:26.099Z,9.75
2022-11-30T07:32:54.482Z,9.73
2022-11-30T07:35:22.933Z,9.75
2022-11-30T07:37:51.159Z,9.81
2022-11-30T07:40:19.457Z,9.71
2022-11-30T07:42:47.754Z,9.50
2022-11-30T07:45:16.162Z,9.67
2022-11-30T07:47:45.732Z,9.76
2022-11-30T07:50:13.978Z,9.76
2022-11-30T07:52:42.479Z,9.62
2022-11-30T07:55:11.149Z,9.57
2022-11-30T07:57:39.399Z,9.36
2022-11-30T08:00:10.258Z,9.45
2022-11-30T08:02:40.393Z,9.45
2022-11-30T08:05:12.148Z,9.38
2022-11-30T08:07:40.491Z,9.34
2022-11-30T08:10:10.717Z,9.44
2022-11-30T08:12:39.017Z,9.33
2022-11-30T08:15:19.762Z,9.19
2022-11-30T08:17:54.483Z,9.45
2022-11-30T08:20:24.284Z,9.56
2022-11-30T08:22:52.871Z,9.62
2022-11-30T08:25:21.106Z,9.70
2022-11-30T08:27:49.402Z,9.80
2022-11-30T08:30:18.220Z,9.83
2022-11-30T08:32:46.563Z,9.85
2022-11-30T08:35:14.984Z,9.90
2022-11-30T08:37:44.609Z,9.61
2022-11-30T08:40:13.689Z,9.91
2022-11-30T08:42:42.033Z,9.73
2022-11-30T08:45:11.502Z,9.64
2022-11-30T08:47:39.774Z,9.48
2022-11-30T08:50:09.307Z,9.47
2022-11-30T08:52:37.687Z,9.64
2022-11-30T08:55:09.592Z,9.63
2022-11-30T08:57:37.832Z,9.51
2022-11-30T09:00:08.150Z,9.65
2022-11-30T09:02:38.197Z,9.50
2022-11-30T09:05:07.375Z,9.66
2022-11-30T09:07:35.707Z,9.75
2022-11-30T09:10:04.180Z,9.77
2022-11-30T09:12:36.292Z,9.76
2022-11-30T09:15:05.472Z,9.92
2022-11-30T09:17:33.850Z,10.03
2022-11-30T09:20:02.714Z,9.94
2022-11-30T09:22:31.070Z,10.17
2022-11-30T09:24:59.379Z,10.26
2022-11-30T09:27:30.384Z,10.20
2022-11-30T09:30:00.174Z,10.29
2022-11-30T09:32:29.827Z,10.21
2022-11-30T09:34:58.212Z,10.33
2022-11-30T09:37:26.789Z,10.39
2022-11-30T09:39:55.014Z,10.46
2022-11-30T09:42:34.833Z,10.52
2022-11-30T09:45:15.023Z,10.56
2022-11-30T09:48:23.055Z,10.65
2022-11-30T09:50:53.480Z,10.68
2022-11-30T09:53:30.180Z,10.69
2022-11-30T09:56:00.282Z,10.75
2022-11-30T09:58:39.628Z,10.72
2022-11-30T10:01:18.748Z,10.82
2022-11-30T10:03:47.834Z,10.83
2022-11-30T10:06:25.573Z,10.93
2022-11-30T10:09:27.402Z,10.97
2022-11-30T10:12:05.635Z,11.05
2022-11-30T10:15:12.466Z,11.00
2022-11-30T10:17:54.253Z,11.08
2022-11-30T10:20:53.390Z,11.20
2022-11-30T10:23:38.064Z,11.29
2022-11-30T10:26:10.625Z,11.22
2022-11-30T10:28:52.443Z,11.24
2022-11-30T10:31:22.990Z,11.40
2022-11-30T10:33:55.700Z,11.30
2022-11-30T10:36:30.927Z,11.27
2022-11-30T10:39:03.823Z,11.26
2022-11-30T10:41:43.166Z,11.21
2022-11-30T10:44:17.045Z,11.03
2022-11-30T10:46:58.384Z,11.27
2022-11-30T10:49:30.764Z,11.17
2022-11-30T10:52:04.720Z,11.39
2022-11-30T10:54:33.500Z,11.59
2022-11-30T10:57:05.600Z,11.65
2022-11-30T10:59:42.467Z,11.70
2022-11-30T11:02:42.705Z,11.61
2022-11-30T11:05:20.194Z,11.77
2022-11-30T11:08:02.737Z,11.49
2022-11-30T11:10:37.728Z,11.71
2022-11-30T11:13:06.621Z,11.83
2022-11-30T11:15:36.357Z,11.90
2022-11-30T11:18:25.675Z,12.00
2022-11-30T11:21:07.139Z,11.82
2022-11-30T11:23:39.571Z,11.94
2022-11-30T11:26:17.306Z,12.06
2022-11-30T11:28:49.939Z,12.19
2022-11-30T11:31:26.380Z,12.22
2022-11-30T11:33:55.696Z,12.28
2022-11-30T11:36:36.792Z,12.23
2022-11-30T11:39:26.700Z,11.79
2022-11-30T11:41:55.578Z,12.25
2022-11-30T11:44:28.054Z,12.45
2022-11-30T11:46:59.224Z,12.70
2022-11-30T11:49:30.237Z,12.86
2022-11-30T11:52:06.502Z,12.99
2022-11-30T11:54:40.902Z,12.77
2022-11-30T11:57:14.259Z,13.54
2022-11-30T11:59:51.939Z,13.76
2022-11-30T12:02:28.937Z,13.88
2022-11-30T12:05:00.728Z,14.10
2022-11-30T12:07:36.657Z,14.29
2022-11-30T12:10:50.474Z,14.57
2022-11-30T12:13:16.412Z,14.62
2022-11-30T12:16:00.198Z,14.79
2022-11-30T12:18:37.155Z,14.65
2022-11-30T12:21:11.868Z,14.57
2022-11-30T12:24:21.860Z,14.56
2022-11-30T12:26:56.800Z,14.56
2022-11-30T12:29:27.209Z,14.56
2022-11-30T12:32:18.168Z,13.97
2022-11-30T12:35:05.035Z,13.81
2022-11-30T12:37:47.714Z,13.19
2022-11-30T12:40:32.856Z,13.23
2022-11-30T12:43:16.298Z,12.74
2022-11-30T12:45:46.368Z,12.87
2022-11-30T12:48:29.650Z,12.59
2022-11-30T12:51:16.781Z,13.00
2022-11-30T12:53:53.437Z,13.26
2022-11-30T12:56:36.091Z,13.43
2022-11-30T12:59:17.825Z,13.32
2022-11-30T13:02:05.646Z,13.48
2022-11-30T13:04:43.347Z,13.58
2022-11-30T13:07:23.165Z,13.66
2022-11-30T13:09:57.442Z,13.36
2022-11-30T13:12:35.937Z,12.94
2022-11-30T13:15:15.864Z,13.46
2022-11-30T13:17:45.363Z,13.61
2022-11-30T13:20:23.356Z,13.67
2022-11-30T13:22:57.698Z,13.69
2022-11-30T13:26:06.433Z,13.85
2022-11-30T13:28:33.298Z,13.91
2022-11-30T13:31:07.195Z,13.91
2022-11-30T13:33:45.058Z,13.87
2022-11-30T13:36:32.266Z,13.96
2022-11-30T13:39:28.855Z,13.97
2022-11-30T13:42:34.306Z,13.97
2022-11-30T13:45:33.286Z,13.92
2022-11-30T13:48:20.734Z,13.91
2022-11-30T13:50:50.379Z,13.81
2022-11-30T13:53:34.059Z,13.83
2022-11-30T13:56:06.626Z,13.88
2022-11-30T13:58:36.537Z,13.79
2022-11-30T14:01:26.176Z,13.76
2022-11-30T14:04:32.999Z,13.70
2022-11-30T14:07:01.674Z,13.56
2022-11-30T14:10:00.346Z,13.52
2022-11-30T14:13:03.321Z,13.55
2022-11-30T14:15:56.266Z,13.41
2022-11-30T14:18:40.320Z,13.45
2022-11-30T14:21:21.215Z,13.48
2022-11-30T14:23:57.026Z,13.36
2022-11-30T14:26:34.154Z,13.37
2022-11-30T14:29:12.126Z,13.16
2022-11-30T14:31:50.986Z,13.26
2022-11-30T14:34:24.719Z,13.18
2022-11-30T14:36:57.705Z,13.28
2022-11-30T14:39:29.662Z,13.16
2022-11-30T14:41:57.950Z,13.26
2022-11-30T14:44:26.283Z,13.27
2022-11-30T14:46:54.614Z,13.23
2022-11-30T14:49:25.649Z,13.25
2022-11-30T14:52:02.006Z,13.26
2022-11-30T14:54:51.050Z,13.24
2022-11-30T14:57:30.468Z,13.21
2022-11-30T14:59:58.898Z,13.14
2022-11-30T15:02:34.212Z,13.10
2022-11-30T15:05:05.233Z,13.18
2022-11-30T15:07:34.145Z,12.99
2022-11-30T15:10:06.876Z,13.06
2022-11-30T15:12:36.495Z,13.05
2022-11-30T15:15:09.089Z,12.86
2022-11-30T15:17:52.175Z,13.05
2022-11-30T15:20:29.752Z,12.95
2022-11-30T15:23:01.802Z,12.97
2022-11-30T15:25:41.486Z,12.89
2022-11-30T15:28:15.041Z,13.02
2022-11-30T15:30:45.909Z,12.97
2022-11-30T15:33:20.269Z,12.99
2022-11-30T15:36:18.680Z,12.95
2022-11-30T15:38:43.353Z,12.97
2022-11-30T15:41:20.220Z,12.84
2022-11-30T15:43:54.229Z,12.97
2022-11-30T15:46:32.835Z,12.97
2022-11-30T15:49:18.759Z,12.91
2022-11-30T15:52:00.536Z,12.96
2022-11-30T15:54:49.378Z,12.85
2022-11-30T15:57:18.679Z,12.87
2022-11-30T16:00:07.374Z,12.74
2022-11-30T16:02:38.517Z,12.87
2022-11-30T16:05:26.850Z,12.85
2022-11-30T16:08:00.039Z,12.86
2022-11-30T16:10:34.982Z,12.84
2022-11-30T16:13:04.224Z,12.80
2022-11-30T16:15:36.002Z,12.76
2022-11-30T16:18:17.782Z,12.80
2022-11-30T16:20:49.342Z,12.80
2022-11-30T16:23:19.974Z,12.76
2022-11-30T16:25:50.776Z,12.77
2022-11-30T16:28:20.141Z,12.68
2022-11-30T16:30:49.433Z,12.65
2022-11-30T16:33:19.929Z,12.48
2022-11-30T16:35:55.979Z,12.72
2022-11-30T16:38:26.263Z,12.74
2022-11-30T16:40:55.731Z,12.73
2022-11-30T16:43:26.123Z,12.75
2022-11-30T16:45:54.534Z,12.69
2022-11-30T16:48:22.806Z,12.69
2022-11-30T16:50:51.231Z,12.59
2022-11-30T16:53:19.542Z,12.44
2022-11-30T16:55:49.270Z,11.82
2022-11-30T16:58:17.714Z,11.62
2022-11-30T17:00:46.017Z,11.35
2022-11-30T17:03:22.384Z,11.43
2022-11-30T17:05:51.046Z,11.24
2022-11-30T17:08:19.364Z,11.34
2022-11-30T17:10:53.088Z,10.97
2022-11-30T17:13:22.223Z,10.93
2022-11-30T17:15:51.228Z,10.67
2022-11-30T17:18:19.817Z,10.55
2022-11-30T17:20:48.078Z,10.84
2022-11-30T17:23:16.344Z,10.85
2022-11-30T17:25:44.761Z,10.81
2022-11-30T17:28:14.353Z,10.72
2022-11-30T17:30:42.726Z,10.72
2022-11-30T17:33:11.102Z,10.81
2022-11-30T17:35:40.192Z,10.90
2022-11-30T17:38:08.664Z,10.87
2022-11-30T17:40:37.092Z,10.85
2022-11-30T17:43:05.348Z,10.92
2022-11-30T17:45:35.201Z,10.83
2022-11-30T17:48:03.545Z,10.81
2022-11-30T17:50:31.853Z,10.83
2022-11-30T17:53:00.182Z,10.87
2022-11-30T17:55:28.470Z,10.84
2022-11-30T17:57:56.768Z,10.88
2022-11-30T18:00:26.333Z,10.88
2022-11-30T18:02:56.073Z,10.84
2022-11-30T18:05:24.409Z,10.83
2022-11-30T18:07:52.733Z,10.85
2022-11-30T18:10:21.048Z,10.84
2022-11-30T18:12:49.363Z,10.82
2022-11-30T18:15:18.042Z,10.70
2022-11-30T18:17:46.334Z,10.66
2022-11-30T18:20:16.385Z,10.72
2022-11-30T18:22:45.187Z,10.65
2022-11-30T18:25:15.503Z,10.70
2022-11-30T18:27:44.447Z,10.64
2022-11-30T18:30:13.835Z,10.64
2022-11-30T18:32:42.220Z,10.62
2022-11-30T18:35:11.355Z,10.54
2022-11-30T18:37:40.986Z,10.56
2022-11-30T18:40:10.870Z,10.50
2022-11-30T18:42:39.199Z,10.48
2022-11-30T18:45:09.069Z,10.48
2022-11-30T18:47:37.332Z,10.41
2022-11-30T18:50:06.979Z,10.37
2022-11-30T18:52:35.256Z,10.41
2022-11-30T18:55:05.105Z,10.44
2022-11-30T18:57:33.497Z,10.40
2022-11-30T19:00:01.798Z,10.40
2022-11-30T19:02:30.319Z,10.42
2022-11-30T19:04:58.750Z,10.34
2022-11-30T19:07:27.151Z,10.33
2022-11-30T19:09:55.701Z,10.13
2022-11-30T19:12:25.525Z,10.35
2022-11-30T19:14:54.199Z,10.31
2022-11-30T19:17:22.772Z,10.24
2022-11-30T19:19:51.142Z,10.16
2022-11-30T19:22:19.441Z,10.15
2022-11-30T19:24:48.254Z,10.13
2022-11-30T19:27:16.710Z,10.11
2022-11-30T19:29:46.430Z,10.03
2022-11-30T19:32:14.878Z,10.08
2022-11-30T19:34:43.098Z,10.03
2022-11-30T19:37:11.386Z,9.90
2022-11-30T19:39:39.726Z,10.02
2022-11-30T19:42:08.037Z,10.01
2022-11-30T19:44:36.497Z,10.02
2022-11-30T19:47:06.279Z,10.05
2022-11-30T19:49:34.613Z,10.02
2022-11-30T19:52:03.315Z,10.00
2022-11-30T19:54:31.710Z,10.05
2022-11-30T19:56:59.947Z,10.03
2022-11-30T19:59:28.357Z,10.00
2022-11-30T20:01:56.721Z,9.96
2022-11-30T20:04:26.562Z,9.94
2022-11-30T20:06:55.105Z,9.96
2022-11-30T20:09:23.746Z,9.94
2022-11-30T20:11:54.750Z,9.91
2022-11-30T20:14:23.310Z,9.80
2022-11-30T20:16:52.987Z,9.83
2022-11-30T20:19:21.375Z,9.84
2022-11-30T20:21:51.229Z,9.78
2022-11-30T20:24:19.803Z,9.78
2022-11-30T20:26:48.680Z,9.68
2022-11-30T20:29:19.000Z,9.70
2022-11-30T20:31:49.305Z,9.66
2022-11-30T20:34:18.464Z,9.65
2022-11-30T20:36:47.016Z,9.65
2022-11-30T20:39:17.261Z,9.66
2022-11-30T20:41:45.815Z,9.64
2022-11-30T20:44:16.130Z,9.62
2022-11-30T20:46:45.091Z,9.59
2022-11-30T20:49:19.050Z,9.60
2022-11-30T20:51:47.749Z,9.56
2022-11-30T20:54:18.099Z,9.54
2022-11-30T20:56:50.889Z,9.52
2022-11-30T20:59:23.839Z,9.46
2022-11-30T21:01:52.329Z,9.55
2022-11-30T21:04:21.176Z,9.50
2022-11-30T21:06:49.648Z,9.50
2022-11-30T21:09:20.812Z,9.44
2022-11-30T21:11:50.224Z,9.46
2022-11-30T21:14:18.759Z,9.40
2022-11-30T21:16:47.163Z,9.45
2022-11-30T21:19:16.793Z,9.35
2022-11-30T21:21:45.118Z,9.40
2022-11-30T21:24:13.714Z,9.45
2022-11-30T21:26:44.277Z,9.43
2022-11-30T21:29:15.208Z,9.49
2022-11-30T21:31:43.979Z,9.51
2022-11-30T21:34:12.410Z,9.45
2022-11-30T21:36:40.954Z,9.51
2022-11-30T21:39:09.849Z,9.51
2022-11-30T21:41:40.643Z,9.51
2022-11-30T21:44:15.645Z,9.51
2022-11-30T21:46:45.554Z,8.92
2022-11-30T21:49:14.592Z,8.75
2022-11-30T21:51:43.848Z,9.44
2022-11-30T21:54:14.016Z,9.46
2022-11-30T21:56:44.696Z,9.43
2022-11-30T21:59:15.502Z,9.34
2022-11-30T22:01:45.465Z,9.44
2022-11-30T22:04:15.556Z,9.45
2022-11-30T22:06:44.674Z,9.50
2022-11-30T22:09:18.351Z,9.44
2022-11-30T22:11:47.079Z,9.53
2022-11-30T22:14:18.036Z,9.51
2022-11-30T22:16:47.103Z,9.58
2022-11-30T22:19:15.682Z,9.56
2022-11-30T22:21:49.769Z,9.62
2022-11-30T22:24:18.686Z,9.68
2022-11-30T22:26:48.992Z,9.73
2022-11-30T22:29:22.233Z,9.77
2022-11-30T22:31:53.104Z,9.45
2022-11-30T22:34:21.975Z,9.70
2022-11-30T22:36:50.338Z,9.75
2022-11-30T22:39:21.598Z,9.72
2022-11-30T22:41:55.548Z,9.75
2022-11-30T22:44:26.439Z,9.69
2022-11-30T22:46:54.800Z,9.69
2022-11-30T22:49:23.193Z,9.68
2022-11-30T22:51:52.004Z,9.67
2022-11-30T22:54:20.543Z,9.63
2022-11-30T22:56:48.910Z,9.60
2022-11-30T22:59:17.590Z,9.63
2022-11-30T23:01:48.758Z,9.49
2022-11-30T23:04:19.712Z,9.55
2022-11-30T23:06:49.611Z,9.52
2022-11-30T23:09:21.306Z,9.43
2022-11-30T23:11:50.501Z,9.42
2022-11-30T23:14:19.176Z,9.44
2022-11-30T23:16:49.074Z,9.33
2022-11-30T23:19:18.196Z,9.48
2022-11-30T23:21:46.533Z,9.43
2022-11-30T23:24:17.318Z,9.30
2022-11-30T23:26:46.414Z,9.41
2022-11-30T23:29:17.171Z,9.38
2022-11-30T23:31:46.391Z,9.33
2022-11-30T23:34:18.411Z,9.28
2022-11-30T23:36:47.173Z,9.32
2022-11-30T23:39:18.416Z,9.27
2022-11-30T23:41:46.879Z,9.28
2022-11-30T23:44:15.250Z,9.31
2022-11-30T23:46:43.740Z,9.25
2022-11-30T23:49:15.276Z,9.23
2022-11-30T23:51:43.757Z,9.18
2022-11-30T23:54:12.117Z,9.22
2022-11-30T23:56:40.322Z,9.17
2022-11-30T23:59:08.573Z,9.19
